createdAt,value
2018-05-10T00:00:19.187Z,7.27
2018-05-10T00:02:22.371Z,7.97
2018-05-10T00:04:24.800Z,7.27
2018-05-10T00:06:27.324Z,7.93
2018-05-10T00:08:29.802Z,8.30
2018-05-10T00:10:32.228Z,7.43
2018-05-10T00:12:35.421Z,8.40
2018-05-10T00:14:38.644Z,8.20
2018-05-10T00:16:41.086Z,7.43
2018-05-10T00:18:44.301Z,7.27
2018-05-10T00:20:46.737Z,8.30
2018-05-10T00:22:49.927Z,6.90
2018-05-10T00:24:53.128Z,8.20
2018-05-10T00:26:55.621Z,8.60
2018-05-10T00:28:58.056Z,7.67
2018-05-10T00:31:01.272Z,7.20
2018-05-10T00:33:03.744Z,9.10
2018-05-10T00:35:06.212Z,8.33
2018-05-10T00:37:08.640Z,8.50
2018-05-10T00:39:11.843Z,8.83
2018-05-10T00:41:15.052Z,7.27
2018-05-10T00:43:17.480Z,8.27
2018-05-10T00:45:20.722Z,8.80
2018-05-10T00:47:23.151Z,9.40
2018-05-10T00:49:26.368Z,9.57
2018-05-10T00:51:28.852Z,7.80
2018-05-10T00:53:31.275Z,8.00
2018-05-10T00:55:34.472Z,9.17
2018-05-10T00:57:36.913Z,9.60
2018-05-10T00:59:39.450Z,8.93
2018-05-10T01:01:41.872Z,9.37
2018-05-10T01:03:45.093Z,7.93
2018-05-10T01:05:47.528Z,10.63
2018-05-10T01:07:50.753Z,10.37
2018-05-10T01:09:53.937Z,9.80
2018-05-10T01:11:56.364Z,10.93
2018-05-10T01:13:59.556Z,9.27
2018-05-10T01:16:02.767Z,10.23
2018-05-10T01:18:05.201Z,11.60
2018-05-10T01:20:07.641Z,10.90
2018-05-10T01:22:10.071Z,10.80
2018-05-10T01:24:12.516Z,11.63
2018-05-10T01:26:15.752Z,10.00
2018-05-10T01:28:18.188Z,11.53
2018-05-10T01:30:21.390Z,11.13
2018-05-10T01:32:23.837Z,12.17
2018-05-10T01:34:27.048Z,11.30
2018-05-10T01:36:29.860Z,12.60
2018-05-10T01:38:32.294Z,11.40
2018-05-10T01:40:34.732Z,11.47
2018-05-10T01:42:37.168Z,11.90
2018-05-10T01:44:39.620Z,11.20
2018-05-10T01:46:42.101Z,10.53
2018-05-10T01:48:44.561Z,10.20
2018-05-10T01:50:47.032Z,11.60
2018-05-10T01:52:49.469Z,11.03
2018-05-10T01:54:52.676Z,11.67
2018-05-10T01:56:55.104Z,11.83
2018-05-10T01:58:57.633Z,11.27
2018-05-10T02:01:00.073Z,10.77
2018-05-10T02:03:02.573Z,11.33
2018-05-10T02:05:05.601Z,11.30
2018-05-10T02:07:08.142Z,11.70
2018-05-10T02:09:10.613Z,10.60
2018-05-10T02:11:13.065Z,12.30
2018-05-10T02:13:15.537Z,12.13
2018-05-10T02:15:17.968Z,12.53
2018-05-10T02:17:21.169Z,10.80
2018-05-10T02:19:23.604Z,12.97
2018-05-10T02:21:26.064Z,11.90
2018-05-10T02:23:28.504Z,11.63
2018-05-10T02:25:30.947Z,12.83
2018-05-10T02:27:34.165Z,11.67
2018-05-10T02:29:36.611Z,13.33
2018-05-10T02:31:39.796Z,12.57
2018-05-10T02:33:42.232Z,14.10
2018-05-10T02:35:44.668Z,12.13
2018-05-10T02:37:47.130Z,14.00
2018-05-10T02:39:49.558Z,13.47
2018-05-10T02:41:52.765Z,12.93
2018-05-10T02:43:55.200Z,11.60
2018-05-10T02:45:57.724Z,12.13
2018-05-10T02:48:00.716Z,14.20
2018-05-10T02:50:03.194Z,13.47
2018-05-10T02:52:05.636Z,13.50
2018-05-10T02:54:08.074Z,13.60
2018-05-10T02:56:11.303Z,13.30
2018-05-10T02:58:13.775Z,13.03
2018-05-10T03:00:16.244Z,13.67
2018-05-10T03:02:18.718Z,12.63
2018-05-10T03:04:21.187Z,14.40
2018-05-10T03:06:23.654Z,16.97
2018-05-10T03:08:26.080Z,21.40
2018-05-10T03:10:29.314Z,25.27
2018-05-10T03:12:31.745Z,30.53
2018-05-10T03:14:34.956Z,38.23
2018-05-10T03:16:37.392Z,40.97
2018-05-10T03:18:39.908Z,46.30
2018-05-10T03:20:42.340Z,49.03
2018-05-10T03:22:45.561Z,54.43
2018-05-10T03:24:48.039Z,59.10
2018-05-10T03:26:50.472Z,62.30
2018-05-10T03:28:53.696Z,68.40
2018-05-10T03:30:56.160Z,73.83
2018-05-10T03:32:58.595Z,71.53
2018-05-10T03:35:01.788Z,78.47
2018-05-10T03:37:04.299Z,79.90
2018-05-10T03:39:06.757Z,85.73
2018-05-10T03:41:09.237Z,88.80
2018-05-10T03:43:11.680Z,91.87
2018-05-10T03:45:14.175Z,93.87
2018-05-10T03:47:16.608Z,93.17
2018-05-10T03:49:19.048Z,103.50
2018-05-10T03:51:21.497Z,100.00
2018-05-10T03:53:23.958Z,105.50
2018-05-10T03:55:26.447Z,106.30
2018-05-10T03:57:29.597Z,104.60
2018-05-10T03:59:32.088Z,106.20
2018-05-10T04:01:34.528Z,109.07
2018-05-10T04:03:48.997Z,112.27
2018-05-10T04:06:03.248Z,110.83
2018-05-10T04:08:17.503Z,108.43
2018-05-10T04:10:32.045Z,107.43
2018-05-10T04:12:34.485Z,112.37
2018-05-10T04:14:36.925Z,112.03
2018-05-10T04:16:39.383Z,108.60
2018-05-10T04:18:41.821Z,109.80
2018-05-10T04:20:44.301Z,108.80
2018-05-10T04:22:46.763Z,102.43
2018-05-10T04:24:49.201Z,102.30
2018-05-10T04:26:51.657Z,108.67
2018-05-10T04:28:54.892Z,102.03
2018-05-10T04:30:58.327Z,101.83
2018-05-10T04:33:00.852Z,97.73
2018-05-10T04:35:03.294Z,87.23
2018-05-10T04:37:06.612Z,91.20
2018-05-10T04:39:09.049Z,85.93
2018-05-10T04:41:12.253Z,84.17
2018-05-10T04:43:14.692Z,81.60
2018-05-10T04:45:17.905Z,82.37
2018-05-10T04:47:20.337Z,78.30
2018-05-10T04:49:22.865Z,78.93
2018-05-10T04:51:25.305Z,73.67
2018-05-10T04:53:28.516Z,73.40
2018-05-10T04:55:30.960Z,75.17
2018-05-10T04:57:34.180Z,71.50
2018-05-10T04:59:36.648Z,69.10
2018-05-10T05:01:39.089Z,70.67
2018-05-10T05:03:42.308Z,66.30
2018-05-10T05:05:44.749Z,64.30
2018-05-10T05:07:47.946Z,60.30
2018-05-10T05:09:50.432Z,58.57
2018-05-10T05:11:53.326Z,59.60
2018-05-10T05:13:56.484Z,59.80
2018-05-10T05:15:58.982Z,55.83
2018-05-10T05:18:01.427Z,56.90
2018-05-10T05:20:04.620Z,53.97
2018-05-10T05:22:07.069Z,54.30
2018-05-10T05:24:10.277Z,52.77
2018-05-10T05:26:12.712Z,55.23
2018-05-10T05:28:15.940Z,54.17
2018-05-10T05:30:19.328Z,53.00
2018-05-10T05:32:21.777Z,55.43
2018-05-10T05:34:25.010Z,52.03
2018-05-10T05:36:27.429Z,50.73
2018-05-10T05:38:30.622Z,48.80
2018-05-10T05:40:33.048Z,50.23
2018-05-10T05:42:35.592Z,46.20
2018-05-10T05:44:38.020Z,49.23
2018-05-10T05:46:41.216Z,51.00
2018-05-10T05:48:43.653Z,50.13
2018-05-10T05:50:46.086Z,49.90
2018-05-10T05:52:48.557Z,49.60
2018-05-10T05:54:51.005Z,48.87
2018-05-10T05:56:53.499Z,49.60
2018-05-10T05:58:55.934Z,47.63
2018-05-10T06:00:59.151Z,50.77
2018-05-10T06:03:01.589Z,46.77
2018-05-10T06:05:04.780Z,46.63
2018-05-10T06:07:07.216Z,46.37
2018-05-10T06:09:09.766Z,42.07
2018-05-10T06:11:12.202Z,46.07
2018-05-10T06:13:14.713Z,46.37
2018-05-10T06:15:17.165Z,45.13
2018-05-10T06:17:19.628Z,41.17
2018-05-10T06:19:22.064Z,40.30
2018-05-10T06:21:25.257Z,42.27
2018-05-10T06:23:27.709Z,42.13
2018-05-10T06:25:30.903Z,37.73
2018-05-10T06:27:34.141Z,40.00
2018-05-10T06:29:36.571Z,34.67
2018-05-10T06:31:39.068Z,34.53
2018-05-10T06:33:41.542Z,37.73
2018-05-10T06:35:44.014Z,34.90
2018-05-10T06:37:46.453Z,34.90
2018-05-10T06:39:49.672Z,32.97
2018-05-10T06:41:52.151Z,32.80
2018-05-10T06:43:54.576Z,28.30
2018-05-10T06:45:57.788Z,27.07
2018-05-10T06:48:00.224Z,25.23
2018-05-10T06:50:03.458Z,26.57
2018-05-10T06:52:05.889Z,25.10
2018-05-10T06:54:09.091Z,25.07
2018-05-10T06:56:11.580Z,25.97
2018-05-10T06:58:14.052Z,24.13
2018-05-10T07:00:16.485Z,22.40
2018-05-10T07:02:20.436Z,22.83
2018-05-10T07:04:22.896Z,25.20
2018-05-10T07:06:25.364Z,26.47
2018-05-10T07:08:27.791Z,25.23
2018-05-10T07:10:31.021Z,23.80
2018-05-10T07:12:33.496Z,25.90
2018-05-10T07:14:35.964Z,26.07
2018-05-10T07:16:38.436Z,25.73
2018-05-10T07:18:41.509Z,26.97
2018-05-10T07:20:44.944Z,26.53
2018-05-10T07:22:47.488Z,23.83
2018-05-10T07:24:49.912Z,25.07
2018-05-10T07:26:53.113Z,24.87
2018-05-10T07:28:56.324Z,23.80
2018-05-10T07:30:58.805Z,23.23
2018-05-10T07:33:01.281Z,22.27
2018-05-10T07:35:03.709Z,21.30
2018-05-10T07:37:06.930Z,21.80
2018-05-10T07:39:09.396Z,20.67
2018-05-10T07:41:11.869Z,22.40
2018-05-10T07:43:14.317Z,22.27
2018-05-10T07:45:16.804Z,21.53
2018-05-10T07:47:19.241Z,23.53
2018-05-10T07:49:22.432Z,23.50
2018-05-10T07:51:25.652Z,23.80
2018-05-10T07:53:28.117Z,25.00
2018-05-10T07:55:30.549Z,25.30
2018-05-10T07:57:33.758Z,25.30
2018-05-10T07:59:36.249Z,24.60
2018-05-10T08:01:38.677Z,25.20
2018-05-10T08:03:41.905Z,26.57
2018-05-10T08:05:44.336Z,25.93
2018-05-10T08:07:47.628Z,24.20
2018-05-10T08:09:50.809Z,23.10
2018-05-10T08:11:54.125Z,22.33
2018-05-10T08:13:57.313Z,22.23
2018-05-10T08:15:59.756Z,24.40
2018-05-10T08:18:02.951Z,22.20
2018-05-10T08:20:06.492Z,21.37
2018-05-10T08:22:08.933Z,21.77
2018-05-10T08:24:11.454Z,22.97
2018-05-10T08:26:13.788Z,22.43
2018-05-10T08:28:16.238Z,24.83
2018-05-10T08:30:18.768Z,25.93
2018-05-10T08:32:21.917Z,26.63
2018-05-10T08:34:24.357Z,26.63
2018-05-10T08:36:26.918Z,26.60
2018-05-10T08:38:29.306Z,23.43
2018-05-10T08:40:31.736Z,23.23
2018-05-10T08:42:34.978Z,22.60
2018-05-10T08:44:37.537Z,22.63
2018-05-10T08:46:41.512Z,18.67
2018-05-10T08:48:44.717Z,20.10
2018-05-10T08:50:47.217Z,19.67
2018-05-10T08:52:49.653Z,18.03
2018-05-10T08:54:52.877Z,18.23
2018-05-10T08:56:55.313Z,19.37
2018-05-10T08:58:58.513Z,19.33
2018-05-10T09:01:01.002Z,17.67
2018-05-10T09:03:03.472Z,17.90
2018-05-10T09:05:05.940Z,17.40
2018-05-10T09:07:08.410Z,14.27
2018-05-10T09:09:10.868Z,13.03
2018-05-10T09:11:13.449Z,12.50
2018-05-10T09:13:15.920Z,14.17
2018-05-10T09:15:18.352Z,12.83
2018-05-10T09:17:21.552Z,12.80
2018-05-10T09:19:24.048Z,13.67
2018-05-10T09:21:26.529Z,12.83
2018-05-10T09:23:28.956Z,12.70
2018-05-10T09:25:32.166Z,12.53
2018-05-10T09:27:34.595Z,11.40
2018-05-10T09:29:37.832Z,11.20
2018-05-10T09:31:40.304Z,10.10
2018-05-10T09:33:43.474Z,9.50
2018-05-10T09:35:45.964Z,10.93
2018-05-10T09:37:48.406Z,9.57
2018-05-10T09:39:51.606Z,9.43
2018-05-10T09:41:54.101Z,9.27
2018-05-10T09:43:56.536Z,10.90
2018-05-10T09:45:58.983Z,11.40
2018-05-10T09:48:02.220Z,11.47
2018-05-10T09:50:04.672Z,11.50
2018-05-10T09:52:07.182Z,11.50
2018-05-10T09:54:09.614Z,12.77
2018-05-10T09:56:12.057Z,12.60
2018-05-10T09:58:15.267Z,13.63
2018-05-10T10:00:23.462Z,12.80
2018-05-10T10:02:26.652Z,13.20
2018-05-10T10:04:29.144Z,11.60
2018-05-10T10:06:31.620Z,10.20
2018-05-10T10:08:34.089Z,9.70
2018-05-10T10:10:36.569Z,9.93
2018-05-10T10:12:39.027Z,10.13
2018-05-10T10:14:41.596Z,10.73
2018-05-10T10:16:44.130Z,10.10
2018-05-10T10:18:47.321Z,10.27
2018-05-10T10:20:50.660Z,13.30
2018-05-10T10:22:53.092Z,11.70
2018-05-10T10:24:56.296Z,12.80
2018-05-10T10:26:58.728Z,11.93
2018-05-10T10:29:01.152Z,12.57
2018-05-10T10:31:03.599Z,12.53
2018-05-10T10:33:06.061Z,13.80
2018-05-10T10:35:09.280Z,14.20
2018-05-10T10:37:11.746Z,13.73
2018-05-10T10:39:14.177Z,15.00
2018-05-10T10:41:17.403Z,14.47
2018-05-10T10:43:19.845Z,14.77
2018-05-10T10:45:23.104Z,13.03
2018-05-10T10:47:25.500Z,15.10
2018-05-10T10:49:28.129Z,16.13
2018-05-10T10:51:30.676Z,17.50
2018-05-10T10:53:33.149Z,20.50
2018-05-10T10:55:35.616Z,20.60
2018-05-10T10:57:38.084Z,22.70
2018-05-10T10:59:40.557Z,20.07
2018-05-10T11:01:43.063Z,22.47
2018-05-10T11:03:46.200Z,20.40
2018-05-10T11:05:48.688Z,22.83
2018-05-10T11:07:51.125Z,24.33
2018-05-10T11:09:53.627Z,23.27
2018-05-10T11:11:56.114Z,22.93
2018-05-10T11:13:58.545Z,23.20
2018-05-10T11:16:00.989Z,23.67
2018-05-10T11:18:04.180Z,23.00
2018-05-10T11:20:07.389Z,23.70
2018-05-10T11:22:09.824Z,21.97
2018-05-10T11:24:12.261Z,23.17
2018-05-10T11:26:14.709Z,21.37
2018-05-10T11:28:17.140Z,19.00
2018-05-10T11:30:20.345Z,21.03
2018-05-10T11:32:23.548Z,18.33
2018-05-10T11:34:25.989Z,20.70
2018-05-10T11:36:28.500Z,18.30
2018-05-10T11:38:30.972Z,17.70
2018-05-10T11:40:33.412Z,18.50
2018-05-10T11:42:36.612Z,17.00
2018-05-10T11:44:39.102Z,16.60
2018-05-10T11:46:41.537Z,18.07
2018-05-10T11:48:44.845Z,17.70
2018-05-10T11:50:47.217Z,17.30
2018-05-10T11:52:49.701Z,16.00
2018-05-10T11:54:52.169Z,16.60
2018-05-10T11:56:54.640Z,18.50
2018-05-10T11:58:57.080Z,17.63
2018-05-10T12:00:59.517Z,17.13
2018-05-10T12:03:02.034Z,17.83
2018-05-10T12:05:04.492Z,18.37
2018-05-10T12:07:06.924Z,18.93
2018-05-10T12:09:09.362Z,16.43
2018-05-10T12:11:11.800Z,17.23
2018-05-10T12:13:14.296Z,17.67
2018-05-10T12:15:16.731Z,17.73
2018-05-10T12:17:19.953Z,17.63
2018-05-10T12:19:22.429Z,18.27
2018-05-10T12:21:24.892Z,19.30
2018-05-10T12:23:27.365Z,18.40
2018-05-10T12:25:29.887Z,17.63
2018-05-10T12:27:32.316Z,15.83
2018-05-10T12:29:34.785Z,15.47
2018-05-10T12:31:37.217Z,14.50
2018-05-10T12:33:40.440Z,14.20
2018-05-10T12:35:42.866Z,13.30
2018-05-10T12:37:46.185Z,11.23
2018-05-10T12:39:48.529Z,11.90
2018-05-10T12:41:51.733Z,11.40
2018-05-10T12:43:54.161Z,11.20
2018-05-10T12:45:56.695Z,10.13
2018-05-10T12:47:59.121Z,10.23
2018-05-10T12:50:02.345Z,10.77
2018-05-10T12:52:04.816Z,9.90
2018-05-10T12:54:07.244Z,9.30
2018-05-10T12:56:10.500Z,10.37
2018-05-10T12:58:13.148Z,9.37
2018-05-10T13:00:15.620Z,9.87
2018-05-10T13:02:18.051Z,9.60
2018-05-10T13:04:21.281Z,9.83
2018-05-10T13:06:23.716Z,11.00
2018-05-10T13:08:26.305Z,11.37
2018-05-10T13:10:28.644Z,10.40
2018-05-10T13:12:31.875Z,11.37
2018-05-10T13:14:34.349Z,11.10
2018-05-10T13:16:36.786Z,11.43
2018-05-10T13:18:39.216Z,11.70
2018-05-10T13:20:41.757Z,12.80
2018-05-10T13:22:44.192Z,12.53
2018-05-10T13:24:47.401Z,11.93
2018-05-10T13:26:49.850Z,15.50
2018-05-10T13:28:53.112Z,13.37
2018-05-10T13:30:55.540Z,13.33
2018-05-10T13:32:57.980Z,13.10
2018-05-10T13:35:01.197Z,15.47
2018-05-10T13:37:03.638Z,13.83
2018-05-10T13:39:06.091Z,15.30
2018-05-10T13:41:08.604Z,13.93
2018-05-10T13:43:11.040Z,15.20
2018-05-10T13:45:14.372Z,15.60
2018-05-10T13:47:17.399Z,13.30
2018-05-10T13:49:20.509Z,14.30
2018-05-10T13:51:23.013Z,15.67
2018-05-10T13:53:25.477Z,15.70
2018-05-10T13:55:27.913Z,15.70
2018-05-10T13:57:31.141Z,15.00
2018-05-10T13:59:33.578Z,15.00
2018-05-10T14:01:36.771Z,16.00
2018-05-10T14:03:39.213Z,14.37
2018-05-10T14:05:41.644Z,16.60
2018-05-10T14:07:44.085Z,17.87
2018-05-10T14:09:47.358Z,17.07
2018-05-10T14:11:50.563Z,16.73
2018-05-10T14:13:53.134Z,15.80
2018-05-10T14:15:56.337Z,17.70
2018-05-10T14:17:58.846Z,19.37
2018-05-10T14:20:01.276Z,23.10
2018-05-10T14:22:03.796Z,21.00
2018-05-10T14:24:06.218Z,18.70
2018-05-10T14:26:08.693Z,20.70
2018-05-10T14:28:11.120Z,21.93
2018-05-10T14:30:14.360Z,20.47
2018-05-10T14:32:16.771Z,23.33
2018-05-10T14:34:20.824Z,23.17
2018-05-10T14:36:23.260Z,23.60
2018-05-10T14:38:26.480Z,26.70
2018-05-10T14:40:28.952Z,24.93
2018-05-10T14:42:31.416Z,27.70
2018-05-10T14:44:33.841Z,26.83
2018-05-10T14:46:36.414Z,26.30
2018-05-10T14:48:38.810Z,29.73
2018-05-10T14:50:41.301Z,26.70
2018-05-10T14:52:43.740Z,28.57
2018-05-10T14:54:46.241Z,30.30
2018-05-10T14:56:48.672Z,29.13
2018-05-10T14:58:51.903Z,28.63
2018-05-10T15:00:54.369Z,30.80
2018-05-10T15:02:56.812Z,31.27
2018-05-10T15:05:00.020Z,32.80
2018-05-10T15:07:02.464Z,33.57
2018-05-10T15:09:04.936Z,32.33
2018-05-10T15:11:08.176Z,34.03
2018-05-10T15:13:10.630Z,34.63
2018-05-10T15:15:13.052Z,33.33
2018-05-10T15:17:16.289Z,33.70
2018-05-10T15:19:18.747Z,35.17
2018-05-10T15:21:21.220Z,35.40
2018-05-10T15:23:23.657Z,33.87
2018-05-10T15:25:27.911Z,32.37
2018-05-10T15:27:30.337Z,33.80
2018-05-10T15:29:33.559Z,33.83
2018-05-10T15:31:36.041Z,35.67
2018-05-10T15:33:38.465Z,32.33
2018-05-10T15:35:41.667Z,32.87
2018-05-10T15:37:44.111Z,33.00
2018-05-10T15:39:47.336Z,34.37
2018-05-10T15:41:49.772Z,33.20
2018-05-10T15:43:52.973Z,33.67
2018-05-10T15:45:55.465Z,32.83
2018-05-10T15:47:57.937Z,36.37
2018-05-10T15:50:00.368Z,34.77
2018-05-10T15:52:03.673Z,34.80
2018-05-10T15:54:06.117Z,34.73
2018-05-10T15:56:08.644Z,35.00
2018-05-10T15:58:11.090Z,33.63
2018-05-10T16:00:13.577Z,34.03
2018-05-10T16:02:16.063Z,36.40
2018-05-10T16:04:18.522Z,33.90
2018-05-10T16:06:20.954Z,34.13
2018-05-10T16:08:24.191Z,35.57
2018-05-10T16:10:26.649Z,36.73
2018-05-10T16:12:29.065Z,36.13
2018-05-10T16:14:31.601Z,36.20
2018-05-10T16:16:34.056Z,36.40
2018-05-10T16:18:36.526Z,32.83
2018-05-10T16:20:38.957Z,35.93
2018-05-10T16:22:42.184Z,37.50
2018-05-10T16:24:44.625Z,32.73
2018-05-10T16:26:47.844Z,35.70
2018-05-10T16:28:50.325Z,34.20
2018-05-10T16:30:52.874Z,34.50
2018-05-10T16:32:56.084Z,33.77
2018-05-10T16:34:58.505Z,33.97
2018-05-10T16:37:01.700Z,34.23
2018-05-10T16:39:05.731Z,35.57
2018-05-10T16:41:08.165Z,33.67
2018-05-10T16:43:11.370Z,32.63
2018-05-10T16:45:13.800Z,32.47
2018-05-10T16:47:16.233Z,33.30
2018-05-10T16:49:18.709Z,35.20
2018-05-10T16:51:21.132Z,34.80
2018-05-10T16:53:24.420Z,34.03
2018-05-10T16:55:26.772Z,33.80
2018-05-10T16:57:29.206Z,34.53
2018-05-10T16:59:31.680Z,32.50
2018-05-10T17:01:34.107Z,35.77
2018-05-10T17:03:43.444Z,35.37
2018-05-10T17:05:45.955Z,35.70
2018-05-10T17:07:48.421Z,33.40
2018-05-10T17:09:50.877Z,36.93
2018-05-10T17:11:53.356Z,37.57
2018-05-10T17:13:55.805Z,35.80
2018-05-10T17:15:58.231Z,35.80
2018-05-10T17:18:00.764Z,33.97
2018-05-10T17:20:03.211Z,38.40
2018-05-10T17:22:05.640Z,36.33
2018-05-10T17:24:08.077Z,35.27
2018-05-10T17:26:10.513Z,35.13
2018-05-10T17:28:13.721Z,37.23
2018-05-10T17:30:16.191Z,34.60
2018-05-10T17:32:18.623Z,38.43
2018-05-10T17:34:21.063Z,37.00
2018-05-10T17:36:23.508Z,40.77
2018-05-10T17:38:25.936Z,40.27
2018-05-10T17:40:29.274Z,40.20
2018-05-10T17:42:31.702Z,41.60
2018-05-10T17:44:34.908Z,40.20
2018-05-10T17:46:37.402Z,41.10
2018-05-10T17:48:39.831Z,43.97
2018-05-10T17:50:43.056Z,45.90
2018-05-10T17:52:45.489Z,44.43
2018-05-10T17:54:49.535Z,44.97
2018-05-10T17:56:51.992Z,43.10
2018-05-10T18:01:27.438Z,45.53
2018-05-10T18:03:29.920Z,45.27
2018-05-10T18:05:32.396Z,47.93
2018-05-10T18:07:34.838Z,45.67
2018-05-10T18:09:38.044Z,44.90
2018-05-10T18:11:40.516Z,42.37
2018-05-10T18:13:43.018Z,40.93
2018-05-10T18:15:46.149Z,40.80
2018-05-10T18:17:49.341Z,42.00
2018-05-10T18:19:51.901Z,38.87
2018-05-10T18:21:55.108Z,38.83
2018-05-10T18:23:57.536Z,40.20
2018-05-10T18:25:59.968Z,40.00
2018-05-10T18:28:02.408Z,36.80
2018-05-10T18:30:05.604Z,39.50
2018-05-10T18:32:08.032Z,39.57
2018-05-10T18:34:10.467Z,39.07
2018-05-10T18:36:13.018Z,36.13
2018-05-10T18:38:15.442Z,39.73
2018-05-10T18:40:17.876Z,38.27
2018-05-10T18:42:20.301Z,39.33
2018-05-10T18:44:23.532Z,38.67
2018-05-10T18:46:26.083Z,35.70
2018-05-10T18:48:28.429Z,37.40
2018-05-10T18:50:31.638Z,34.93
2018-05-10T18:52:34.120Z,30.87
2018-05-10T18:54:36.620Z,34.60
2018-05-10T18:56:39.074Z,26.83
2018-05-10T18:58:41.551Z,31.00
2018-05-10T19:00:43.980Z,31.07
2018-05-10T19:02:46.408Z,28.93
2018-05-10T19:04:48.851Z,27.23
2018-05-10T19:06:51.367Z,22.43
2018-05-10T19:08:53.763Z,21.27
2018-05-10T19:10:56.192Z,17.20
2018-05-10T19:12:59.380Z,17.40
2018-05-10T19:15:02.585Z,16.20
2018-05-10T19:17:05.098Z,17.47
2018-05-10T19:19:07.538Z,15.57
2018-05-10T19:21:10.748Z,13.97
2018-05-10T19:23:13.224Z,13.33
2018-05-10T19:25:15.698Z,14.60
2018-05-10T19:27:18.168Z,13.63
2018-05-10T19:29:20.606Z,13.20
2018-05-10T19:31:23.845Z,12.97
2018-05-10T19:33:26.280Z,11.97
2018-05-10T19:35:28.716Z,11.53
2018-05-10T19:37:31.152Z,10.87
2018-05-10T19:39:33.588Z,10.90
2018-05-10T19:41:36.040Z,12.17
2018-05-10T19:43:39.240Z,12.37
2018-05-10T19:45:41.672Z,10.70
2018-05-10T19:47:44.104Z,9.87
2018-05-10T19:49:46.558Z,9.83
2018-05-10T19:51:49.043Z,9.40
2018-05-10T19:53:51.512Z,9.90
2018-05-10T19:55:53.936Z,9.30
2018-05-10T19:57:57.163Z,8.10
2018-05-10T19:59:59.633Z,9.80
2018-05-10T20:02:02.062Z,8.97
2018-05-10T20:04:05.252Z,8.70
2018-05-10T20:06:08.546Z,8.67
2018-05-10T20:08:10.957Z,8.80
2018-05-10T20:10:13.420Z,7.97
2018-05-10T20:12:15.955Z,8.53
2018-05-10T20:14:18.321Z,9.60
2018-05-10T20:16:21.517Z,9.30
2018-05-10T20:18:24.732Z,7.80
2018-05-10T20:20:27.204Z,7.27
2018-05-10T20:22:29.681Z,7.10
2018-05-10T20:24:32.533Z,7.27
2018-05-10T20:26:35.728Z,7.70
2018-05-10T20:28:38.173Z,8.53
2018-05-10T20:30:41.605Z,9.93
2018-05-10T20:32:44.044Z,8.53
2018-05-10T20:34:47.237Z,8.27
2018-05-10T20:36:50.488Z,8.57
2018-05-10T20:38:52.901Z,8.63
2018-05-10T20:40:55.328Z,9.40
2018-05-10T20:42:57.756Z,9.90
2018-05-10T20:45:00.184Z,9.40
2018-05-10T20:47:03.412Z,10.07
2018-05-10T20:49:05.889Z,9.03
2018-05-10T20:51:08.352Z,8.07
2018-05-10T20:53:10.771Z,9.00
2018-05-10T20:55:13.269Z,8.20
2018-05-10T20:57:15.660Z,8.90
2018-05-10T20:59:18.094Z,7.77
2018-05-10T21:01:21.296Z,8.47
2018-05-10T21:03:23.724Z,10.20
2018-05-10T21:05:26.266Z,10.13
2018-05-10T21:07:28.736Z,9.03
2018-05-10T21:09:31.165Z,8.23
2018-05-10T21:11:34.364Z,8.10
2018-05-10T21:13:36.856Z,9.20
2018-05-10T21:15:39.356Z,10.30
2018-05-10T21:17:41.780Z,8.70
2018-05-10T21:19:44.268Z,8.80
2018-05-10T21:21:46.700Z,8.77
2018-05-10T21:23:50.466Z,9.27
2018-05-10T21:25:52.905Z,9.07
2018-05-10T21:27:55.375Z,11.10
2018-05-10T21:29:57.809Z,9.93
2018-05-10T21:32:01.013Z,9.50
2018-05-10T21:34:03.474Z,8.03
2018-05-10T21:36:05.876Z,8.07
2018-05-10T21:38:08.308Z,8.40
2018-05-10T21:40:11.512Z,9.30
2018-05-10T21:42:13.954Z,10.00
2018-05-10T21:44:16.380Z,9.57
2018-05-10T21:46:18.820Z,9.13
2018-05-10T21:48:21.253Z,10.80
2018-05-10T21:50:27.538Z,9.33
2018-05-10T21:52:30.731Z,9.93
2018-05-10T21:54:33.152Z,8.70
2018-05-10T21:56:35.590Z,8.37
2018-05-10T21:58:38.022Z,10.13
2018-05-10T22:00:41.254Z,10.07
2018-05-10T22:02:43.684Z,9.07
2018-05-10T22:04:46.920Z,9.70
2018-05-10T22:06:49.376Z,8.80
2018-05-10T22:08:51.886Z,8.60
2018-05-10T22:10:55.033Z,10.27
2018-05-10T22:12:57.908Z,12.00
2018-05-10T22:15:00.345Z,10.30
2018-05-10T22:17:03.568Z,9.57
2018-05-10T22:19:05.994Z,9.83
2018-05-10T22:21:08.544Z,11.10
2018-05-10T22:23:11.092Z,10.70
2018-05-10T22:25:13.565Z,11.20
2018-05-10T22:27:16.028Z,10.83
2018-05-10T22:29:18.506Z,11.70
2018-05-10T22:31:20.953Z,13.53
2018-05-10T22:33:23.383Z,12.20
2018-05-10T22:35:26.028Z,13.50
2018-05-10T22:37:28.468Z,13.60
2018-05-10T22:39:30.903Z,13.53
2018-05-10T22:41:33.341Z,14.50
2018-05-10T22:43:35.809Z,15.57
2018-05-10T22:45:38.237Z,14.90
2018-05-10T22:47:40.668Z,16.70
2018-05-10T22:49:43.208Z,15.33
2018-05-10T22:51:45.676Z,15.50
2018-05-10T22:53:48.144Z,16.70
2018-05-10T22:55:50.711Z,19.20
2018-05-10T22:57:53.143Z,17.20
2018-05-10T22:59:56.277Z,17.23
2018-05-10T23:01:58.738Z,19.77
2018-05-10T23:04:01.216Z,19.37
2018-05-10T23:06:03.724Z,17.73
2018-05-10T23:08:06.112Z,19.47
2018-05-10T23:10:09.341Z,19.67
2018-05-10T23:12:11.820Z,19.50
2018-05-10T23:14:14.235Z,19.87
2018-05-10T23:16:17.445Z,21.17
2018-05-10T23:18:19.872Z,22.27
2018-05-10T23:20:22.304Z,23.03
2018-05-10T23:22:24.775Z,22.70
2018-05-10T23:24:27.205Z,24.23
2018-05-10T23:26:30.411Z,24.37
2018-05-10T23:28:33.664Z,23.73
2018-05-10T23:30:36.197Z,25.77
2018-05-10T23:32:38.659Z,26.50
2018-05-10T23:34:41.124Z,25.60
2018-05-10T23:36:43.564Z,25.93
2018-05-10T23:38:46.760Z,27.53
2018-05-10T23:40:49.254Z,27.20
2018-05-10T23:42:51.697Z,27.47
2018-05-10T23:44:54.921Z,25.30
2018-05-10T23:46:57.369Z,28.90
2018-05-10T23:48:59.796Z,27.57
2018-05-10T23:51:02.991Z,29.23
2018-05-10T23:53:05.648Z,28.70
2018-05-10T23:55:08.191Z,30.00
2018-05-10T23:57:10.661Z,29.73
2018-05-10T23:59:13.132Z,31.50
